Time;durP1;ratioP1;P1;durP2;ratioP2;P2;SDS_P1;SDS_P2;PMS_P1;PMS_P2;Temp;Humidity;BMP_temperature;BMP_pressure;BME280_temperature;BME280_humidity;BME280_pressure;Samples;Min_cycle;Max_cycle;Signal;HPM_P1;HPM_P2
2022/12/14 00:02:05;;;;;;;26.70;14.93;;;;;;;-1.49;76.86;100309.86;1477481;88;21570;-81
2022/12/14 00:04:31;;;;;;;22.80;15.00;;;;;;;-1.51;77.30;100303.89;1472443;87;22321;-84
2022/12/14 00:06:57;;;;;;;18.80;12.70;;;;;;;-1.50;77.47;100305.56;1481291;87;21456;-82
2022/12/14 00:09:23;;;;;;;22.97;13.77;;;;;;;-1.55;77.19;100302.80;1473892;88;23034;-85
2022/12/14 00:11:49;;;;;;;21.90;14.43;;;;;;;-1.63;77.07;100309.22;1481100;88;21852;-83
2022/12/14 00:14:15;;;;;;;23.43;14.67;;;;;;;-1.68;77.51;100307.75;1476027;88;22061;-82
2022/12/14 00:16:41;;;;;;;22.52;13.83;;;;;;;-1.73;77.65;100306.66;1403178;87;21360;-82
2022/12/14 00:19:09;;;;;;;23.70;14.67;;;;;;;-1.75;78.16;100294.70;1403866;88;21219;-84
2022/12/14 00:21:35;;;;;;;23.70;15.20;;;;;;;-1.80;78.34;100297.50;1407309;88;21501;-81
2022/12/14 00:24:02;;;;;;;25.72;15.18;;;;;;;-1.85;78.51;100292.52;1404141;87;22358;-84
2022/12/14 00:26:31;;;;;;;23.30;14.45;;;;;;;-1.86;78.92;100301.22;1403405;88;21257;-83
2022/12/14 00:28:59;;;;;;;28.40;16.25;;;;;;;-1.89;79.06;100301.83;1400777;87;21257;-84
2022/12/14 00:31:25;;;;;;;26.70;15.95;;;;;;;-1.90;79.33;100307.91;1407943;88;21309;-82
2022/12/14 00:33:51;;;;;;;27.45;16.75;;;;;;;-1.90;79.40;100307.48;1565447;88;21243;-83
2022/12/14 00:36:18;;;;;;;34.10;19.25;;;;;;;-1.92;79.52;100306.70;1409602;87;21294;-80
2022/12/14 00:38:44;;;;;;;41.70;23.57;;;;;;;-1.93;79.76;100299.80;1403404;88;21301;-82
2022/12/14 00:41:11;;;;;;;40.80;22.80;;;;;;;-1.95;79.87;100304.25;1403216;88;21375;-82
2022/12/14 00:43:37;;;;;;;40.10;22.58;;;;;;;-1.94;79.72;100310.27;1408776;88;22159;-82
2022/12/14 00:46:04;;;;;;;41.48;23.05;;;;;;;-1.93;80.03;100308.88;1403681;87;21242;-83
2022/12/14 00:48:30;;;;;;;35.80;21.65;;;;;;;-1.93;80.30;100310.19;1403547;88;21434;-83
2022/12/14 00:50:56;;;;;;;35.70;20.32;;;;;;;-1.93;80.83;100306.75;1403696;87;21242;-82
2022/12/14 00:53:24;;;;;;;35.05;21.02;;;;;;;-1.97;81.07;100303.47;1409839;88;21336;-81
2022/12/14 00:55:50;;;;;;;38.50;20.72;;;;;;;-1.98;81.30;100304.39;1565402;88;21213;-81
2022/12/14 00:58:21;;;;;;;34.53;20.32;;;;;;;-1.98;81.46;100308.28;1403147;87;21198;-83
2022/12/14 01:01:00;;;;;;;32.73;19.57;;;;;;;-1.98;81.35;100309.58;1488071;88;21331;-82
2022/12/14 01:03:26;;;;;;;39.98;21.27;;;;;;;-1.99;81.32;100307.87;1564132;88;21413;-81
2022/12/14 01:05:52;;;;;;;52.45;24.98;;;;;;;-2.03;81.42;100303.76;1409470;88;22292;-81
2022/12/14 01:08:18;;;;;;;59.37;27.97;;;;;;;-2.07;82.17;100306.12;1433647;88;21382;-82
2022/12/14 01:10:44;;;;;;;73.07;34.00;;;;;;;-2.10;81.99;100301.05;1479469;87;21455;-82
2022/12/14 01:13:10;;;;;;;67.40;31.50;;;;;;;-2.10;82.25;100306.23;1481178;88;21375;-83
2022/12/14 01:15:36;;;;;;;39.78;22.20;;;;;;;-2.11;82.26;100307.98;1478766;88;23143;-82
2022/12/14 01:18:02;;;;;;;33.65;20.10;;;;;;;-2.16;82.75;100309.11;1478667;87;21501;-82
2022/12/14 01:20:29;;;;;;;33.55;20.65;;;;;;;-2.17;82.22;100311.33;1477377;87;21410;-82
2022/12/14 01:22:56;;;;;;;34.40;19.62;;;;;;;-2.19;82.61;100310.55;1477289;88;21530;-83
2022/12/14 01:25:22;;;;;;;32.35;19.45;;;;;;;-2.20;82.42;100311.47;1472997;88;21574;-84
2022/12/14 01:27:49;;;;;;;29.35;17.42;;;;;;;-2.18;82.58;100309.66;1479620;88;21433;-82
2022/12/14 01:30:17;;;;;;;28.65;15.65;;;;;;;-2.17;82.77;100310.03;1563342;88;21382;-80
2022/12/14 01:32:43;;;;;;;31.42;17.10;;;;;;;-2.18;82.79;100300.58;1402191;88;22263;-84
2022/12/14 01:35:09;;;;;;;27.50;17.40;;;;;;;-2.16;82.71;100302.16;1403938;88;21294;-80
2022/12/14 01:37:35;;;;;;;27.63;17.07;;;;;;;-2.13;82.68;100308.53;1416043;87;21518;-83
2022/12/14 01:40:01;;;;;;;22.90;15.00;;;;;;;-2.14;82.20;100312.48;1403784;87;21242;-84
2022/12/14 01:42:27;;;;;;;27.15;16.50;;;;;;;-2.17;82.22;100321.23;1403525;88;21488;-82
2022/12/14 01:44:57;;;;;;;24.45;16.52;;;;;;;-2.20;82.06;100319.24;1403917;88;21316;-83
2022/12/14 01:47:40;;;;;;;34.48;19.80;;;;;;;-2.21;82.20;100322.76;1564425;88;21286;-83
2022/12/14 01:50:29;;;;;;;28.83;16.80;;;;;;;-2.21;82.34;100323.59;1562309;88;22166;-85
2022/12/14 01:53:06;;;;;;;26.90;16.17;;;;;;;-2.24;82.29;100317.68;1399875;89;21470;-85
2022/12/14 01:55:37;;;;;;;26.62;17.35;;;;;;;-2.24;82.68;100302.98;1565375;88;21279;-83
2022/12/14 01:58:15;;;;;;;26.68;18.20;;;;;;;-2.25;83.09;100299.16;1565621;88;21417;-82
2022/12/14 02:00:43;;;;;;;26.40;16.52;;;;;;;-2.27;83.11;100303.97;1401621;88;21396;-83
2022/12/14 02:03:38;;;;;;;26.73;17.23;;;;;;;-2.30;83.23;100305.41;1401997;87;22130;-83
2022/12/14 02:06:09;;;;;;;29.63;16.57;;;;;;;-2.34;83.11;100299.12;1565970;88;21184;-84
2022/12/14 02:08:35;;;;;;;;;;;;;;;-2.40;83.15;100297.64;1567182;88;22144;-82
2022/12/14 02:11:02;;;;;;;33.88;18.05;;;;;;;-2.47;83.52;100295.38;1386026;89;20246;-81
2022/12/14 02:13:32;;;;;;;33.67;19.60;;;;;;;-2.53;83.93;100289.58;1409509;88;22063;-82
2022/12/14 02:15:58;;;;;;;39.98;21.80;;;;;;;-2.58;84.31;100286.80;1410201;88;21338;-79
2022/12/14 02:18:28;;;;;;;37.93;22.15;;;;;;;-2.62;84.60;100288.70;1481540;88;21456;-82
2022/12/14 02:21:26;;;;;;;32.93;18.15;;;;;;;-2.67;84.52;100282.03;1399367;88;21322;-82
2022/12/14 02:24:14;;;;;;;34.48;18.50;;;;;;;-2.71;84.33;100286.48;1413187;88;21300;-80
2022/12/14 02:27:00;;;;;;;31.25;18.60;;;;;;;-2.74;84.25;100284.03;1404677;87;21405;-83
2022/12/14 02:29:53;;;;;;;32.50;21.12;;;;;;;-2.77;84.23;100286.30;1565435;88;21139;-79
2022/12/14 02:32:37;;;;;;;36.38;21.33;;;;;;;-2.78;84.37;100291.09;1565455;88;21146;-84
2022/12/14 02:35:21;;;;;;;36.48;19.32;;;;;;;-2.78;84.51;100288.97;1559106;88;21345;-82
2022/12/14 02:38:13;;;;;;;35.78;22.32;;;;;;;-2.80;84.84;100284.30;1507004;88;21507;-84
2022/12/14 02:41:07;;;;;;;35.73;20.92;;;;;;;-2.80;84.76;100285.13;1482991;88;22225;-83
2022/12/14 02:43:59;;;;;;;33.55;19.98;;;;;;;-2.85;84.85;100292.28;1556282;88;22277;-82
2022/12/14 02:46:36;;;;;;;34.58;19.05;;;;;;;-2.91;85.28;100287.34;1559541;88;21198;-84
2022/12/14 02:49:16;;;;;;;34.55;20.62;;;;;;;-2.92;85.11;100286.12;1565361;88;21345;-83
2022/12/14 02:51:57;;;;;;;29.67;17.23;;;;;;;-2.99;85.28;100285.56;1403711;88;21412;-80
2022/12/14 02:54:37;;;;;;;39.42;21.60;;;;;;;-3.05;85.50;100288.37;1418506;90;21338;-81
2022/12/14 02:57:24;;;;;;;31.05;19.45;;;;;;;-3.12;86.81;100293.44;1559358;88;22256;-83
2022/12/14 02:59:55;;;;;;;33.28;20.62;;;;;;;-3.17;87.36;100287.98;1399890;88;21516;-80
2022/12/14 03:02:21;;;;;;;;;;;;;;;-3.18;87.53;100282.89;1567856;87;21330;-83
2022/12/14 03:04:49;;;;;;;37.08;20.45;;;;;;;-3.22;87.83;100286.06;1403789;87;20231;-83
2022/12/14 03:07:50;;;;;;;26.62;16.15;;;;;;;-3.22;87.62;100282.18;1402508;87;21220;-82
2022/12/14 03:10:39;;;;;;;33.38;20.48;;;;;;;-3.24;88.35;100271.04;1404896;88;22220;-83
2022/12/14 03:13:36;;;;;;;28.40;16.52;;;;;;;-3.25;87.98;100281.44;1565365;88;21191;-83
2022/12/14 03:16:19;;;;;;;32.40;18.45;;;;;;;-3.28;87.56;100277.69;1565367;88;21199;-82
2022/12/14 03:19:00;;;;;;;31.12;18.82;;;;;;;-3.30;87.36;100275.18;1559458;88;21323;-84
2022/12/14 03:21:35;;;;;;;32.00;19.62;;;;;;;-3.35;87.72;100270.64;1453460;88;21265;-80
2022/12/14 03:24:06;;;;;;;31.35;17.80;;;;;;;-3.41;87.55;100265.72;1565516;88;22220;-80
2022/12/14 03:26:46;;;;;;;27.67;17.57;;;;;;;-3.47;87.54;100257.75;1399557;88;21353;-83
2022/12/14 03:29:24;;;;;;;26.10;16.15;;;;;;;-3.52;88.28;100253.67;1403000;88;21323;-82
2022/12/14 03:31:57;;;;;;;27.87;16.60;;;;;;;-3.57;88.12;100250.42;1400107;89;21234;-83
2022/12/14 03:34:32;;;;;;;27.85;17.42;;;;;;;-3.64;88.69;100253.72;1565877;88;21406;-83
2022/12/14 03:37:15;;;;;;;31.12;19.12;;;;;;;-3.68;88.49;100260.77;1558872;88;21486;-81
2022/12/14 03:39:43;;;;;;;35.35;20.15;;;;;;;-3.75;89.87;100251.55;1404578;88;21293;-78
2022/12/14 03:42:32;;;;;;;32.20;19.95;;;;;;;-3.78;88.81;100249.09;1416871;88;21464;-83
2022/12/14 03:45:12;;;;;;;30.43;18.95;;;;;;;-3.80;89.32;100252.64;1480504;88;21463;-83
2022/12/14 03:48:13;;;;;;;33.42;19.30;;;;;;;-3.85;89.80;100252.84;1479698;88;21397;-84
2022/12/14 03:50:50;;;;;;;38.08;21.12;;;;;;;-3.88;89.39;100247.79;1484495;88;21604;-83
2022/12/14 03:53:46;;;;;;;30.48;18.73;;;;;;;-3.94;89.70;100256.63;1477849;88;22275;-84
2022/12/14 03:56:34;;;;;;;37.65;21.20;;;;;;;-4.00;89.62;100253.42;1562864;88;21631;-84
2022/12/14 03:59:06;;;;;;;38.67;22.13;;;;;;;-4.02;89.39;100248.78;1565626;88;21161;-82
2022/12/14 04:01:52;;;;;;;37.80;21.87;;;;;;;-4.03;89.79;100253.54;1449756;88;21293;-84
2022/12/14 04:04:28;;;;;;;35.63;21.30;;;;;;;-4.03;89.86;100247.08;1434158;88;21316;-84
2022/12/14 04:07:11;;;;;;;35.70;20.75;;;;;;;-4.03;89.86;100253.54;1543175;88;21498;-79
2022/12/14 04:09:52;;;;;;;41.63;21.70;;;;;;;-4.05;89.71;100244.57;1400148;89;21316;-84
2022/12/14 04:21:16;;;;;;;36.30;18.77;;;;;;;-4.10;89.85;100246.02;1479476;87;21323;-80
2022/12/14 04:26:40;;;;;;;31.57;17.92;;;;;;;-4.08;90.17;100244.69;1483632;87;21559;-86
2022/12/14 04:32:02;;;;;;;42.58;21.93;;;;;;;-4.04;90.09;100233.31;1475723;87;21397;-84
2022/12/14 04:34:30;;;;;;;34.00;20.25;;;;;;;-4.04;89.75;100238.94;1563117;88;21316;-85
2022/12/14 04:37:00;;;;;;;33.83;19.90;;;;;;;-4.03;89.58;100231.56;1413995;88;21271;-79
2022/12/14 04:39:38;;;;;;;37.28;21.48;;;;;;;-4.03;89.44;100225.94;1541563;87;21315;-83
2022/12/14 04:42:06;;;;;;;40.55;23.50;;;;;;;-4.03;89.28;100215.59;1478329;88;22965;-80
2022/12/14 04:44:41;;;;;;;34.67;20.65;;;;;;;-4.04;89.15;100207.92;1476913;87;21456;-81
2022/12/14 04:47:11;;;;;;;34.43;21.80;;;;;;;-4.03;89.16;100200.55;1476343;88;21507;-83
2022/12/14 04:49:55;;;;;;;37.05;20.55;;;;;;;-4.00;89.20;100203.00;1480133;88;21537;-83
2022/12/14 04:52:32;;;;;;;35.15;21.75;;;;;;;-4.02;89.40;100193.20;1480175;88;22491;-82
2022/12/14 04:55:10;;;;;;;31.73;19.23;;;;;;;-3.98;89.91;100186.99;1478336;88;21611;-84
2022/12/14 04:57:51;;;;;;;31.23;18.90;;;;;;;-3.93;89.93;100191.53;1474486;88;22365;-81
2022/12/14 05:00:17;;;;;;;35.73;20.08;;;;;;;-3.92;90.36;100191.91;1482441;88;21404;-80
2022/12/14 05:03:04;;;;;;;34.45;20.02;;;;;;;-3.93;90.04;100210.92;1479773;87;22359;-82
2022/12/14 05:05:53;;;;;;;37.75;22.62;;;;;;;-3.95;90.09;100204.97;1481743;88;21374;-82
2022/12/14 05:08:59;;;;;;;38.90;22.20;;;;;;;-3.95;90.18;100194.62;1473402;88;21323;-82
2022/12/14 05:11:42;;;;;;;37.73;24.05;;;;;;;-3.96;90.46;100183.91;1482105;87;21418;-84
2022/12/14 05:14:14;;;;;;;36.20;22.22;;;;;;;-3.95;90.38;100179.11;1477152;88;21574;-84
2022/12/14 05:16:40;;;;;;;;;;;;;;;-3.94;90.61;100175.19;1409632;88;22137;-83
2022/12/14 05:19:09;;;;;;;37.97;20.30;;;;;;;-3.91;91.30;100175.52;1404440;88;20238;-83
2022/12/14 05:21:48;;;;;;;45.88;23.50;;;;;;;-3.86;90.88;100182.61;1402651;87;21359;-83
2022/12/14 05:24:16;;;;;;;41.23;22.60;;;;;;;-3.81;91.00;100187.61;1565408;88;21147;-80
2022/12/14 05:26:43;;;;;;;40.92;23.50;;;;;;;-3.76;90.90;100191.69;1407925;87;22239;-82
2022/12/14 05:29:09;;;;;;;42.13;24.45;;;;;;;-3.71;90.74;100192.78;1403090;88;21479;-83
2022/12/14 05:31:35;;;;;;;38.80;22.67;;;;;;;-3.67;90.94;100187.42;1404002;88;21412;-82
2022/12/14 05:34:01;;;;;;;36.45;21.73;;;;;;;-3.67;90.63;100186.59;1403782;87;22308;-83
2022/12/14 05:36:27;;;;;;;37.73;21.70;;;;;;;-3.69;90.92;100176.75;1404048;88;21397;-81
2022/12/14 05:38:53;;;;;;;39.03;24.15;;;;;;;-3.69;91.12;100181.47;1524134;88;22493;-83
2022/12/14 05:41:19;;;;;;;37.93;22.43;;;;;;;-3.66;91.06;100173.58;1404251;87;21241;-83
2022/12/14 05:43:45;;;;;;;46.92;26.10;;;;;;;-3.61;90.87;100169.52;1560766;88;22002;-83
2022/12/14 05:46:11;;;;;;;45.13;24.77;;;;;;;-3.56;90.89;100165.45;1403899;88;21271;-86
2022/12/14 05:48:38;;;;;;;50.10;28.15;;;;;;;-3.53;91.07;100165.33;1409708;88;21505;-84
2022/12/14 05:51:09;;;;;;;53.60;29.57;;;;;;;-3.49;90.83;100157.81;1565656;88;21162;-80
2022/12/14 05:53:35;;;;;;;57.00;27.42;;;;;;;-3.47;91.27;100147.79;1565317;88;21307;-84
2022/12/14 05:56:04;;;;;;;55.78;28.47;;;;;;;-3.46;91.27;100149.45;1423916;88;22446;-85
2022/12/14 05:58:32;;;;;;;58.20;29.87;;;;;;;-3.44;90.97;100141.64;1482654;88;21529;-84
2022/12/14 06:01:04;;;;;;;57.40;26.85;;;;;;;-3.42;90.87;100142.42;1402156;88;21389;-85
2022/12/14 06:03:30;;;;;;;48.83;27.62;;;;;;;-3.42;90.84;100132.08;1565404;87;21265;-83
2022/12/14 06:06:08;;;;;;;46.40;25.25;;;;;;;-3.41;91.03;100129.86;1403891;87;21250;-83
2022/12/14 06:08:44;;;;;;;43.10;24.95;;;;;;;-3.42;91.55;100130.78;1565389;87;21198;-78
2022/12/14 06:11:15;;;;;;;49.45;26.20;;;;;;;-3.39;90.85;100135.82;1559615;88;21535;-81
2022/12/14 06:13:43;;;;;;;53.17;28.85;;;;;;;-3.44;91.60;100136.47;1565275;88;21557;-79
2022/12/14 06:16:22;;;;;;;61.28;31.55;;;;;;;-3.43;91.30;100134.26;1401857;87;21241;-84
2022/12/14 06:18:58;;;;;;;68.15;36.23;;;;;;;-3.43;91.54;100131.67;1565414;88;21257;-83
2022/12/14 06:21:28;;;;;;;53.38;28.40;;;;;;;-3.40;91.53;100129.78;1475039;88;21367;-81
2022/12/14 06:23:55;;;;;;;42.70;24.47;;;;;;;-3.35;91.31;100115.36;1565364;88;21272;-81
2022/12/14 06:26:22;;;;;;;47.45;26.97;;;;;;;-3.33;91.11;100128.25;1402928;87;21249;-83
2022/12/14 06:28:49;;;;;;;44.90;26.30;;;;;;;-3.33;90.94;100147.20;1401835;88;21249;-85
2022/12/14 06:31:22;;;;;;;48.23;26.52;;;;;;;-3.31;91.23;100154.88;1403576;88;21386;-84
2022/12/14 06:33:49;;;;;;;41.98;25.25;;;;;;;-3.30;90.81;100162.59;1399219;89;21300;-84
2022/12/14 06:36:23;;;;;;;47.93;25.70;;;;;;;-3.26;90.72;100164.59;1561207;88;21414;-83
2022/12/14 06:38:51;;;;;;;53.25;25.48;;;;;;;-3.22;90.51;100167.45;1479765;88;21330;-81
2022/12/14 06:41:18;;;;;;;55.30;26.02;;;;;;;-3.19;90.55;100165.56;1402209;88;21478;-83
2022/12/14 06:43:44;;;;;;;54.88;29.32;;;;;;;-3.14;90.68;100160.62;1408474;87;21449;-81
2022/12/14 06:46:14;;;;;;;53.85;26.55;;;;;;;-3.12;90.33;100151.05;1403658;88;21478;-82
2022/12/14 06:48:40;;;;;;;50.23;28.92;;;;;;;-3.11;90.06;100145.79;1402172;88;22201;-80
2022/12/14 06:51:07;;;;;;;54.45;26.12;;;;;;;-3.07;89.87;100156.41;1402914;88;21375;-82
2022/12/14 06:53:35;;;;;;;45.40;24.30;;;;;;;-3.05;89.17;100149.86;1403013;88;21464;-78
2022/12/14 06:56:14;;;;;;;47.23;25.40;;;;;;;-3.03;89.13;100150.17;1487917;88;21433;-82
2022/12/14 06:58:41;;;;;;;45.15;26.87;;;;;;;-2.98;89.24;100152.58;1439420;88;21425;-86
2022/12/14 07:01:12;;;;;;;43.02;23.80;;;;;;;-2.96;88.57;100141.70;1479211;88;21426;-87
2022/12/14 07:03:39;;;;;;;41.48;23.75;;;;;;;-2.93;88.51;100136.81;1456777;88;21404;-87
2022/12/14 07:06:06;;;;;;;40.95;22.90;;;;;;;-2.89;88.23;100135.32;1467001;88;21691;-85
2022/12/14 07:08:35;;;;;;;56.23;24.32;;;;;;;-2.86;88.26;100126.58;1472418;87;22384;-89
2022/12/14 07:11:04;;;;;;;46.37;26.02;;;;;;;-2.85;88.12;100125.23;1457879;88;22035;-82
2022/12/14 07:13:34;;;;;;;54.80;27.60;;;;;;;-2.77;88.42;100123.56;1477464;88;21382;-89
2022/12/14 07:16:01;;;;;;;42.73;23.42;;;;;;;-2.74;87.43;100126.84;1476869;88;21496;-89
2022/12/14 07:18:31;;;;;;;40.33;22.13;;;;;;;-2.70;87.53;100109.86;1475307;88;21322;-85
2022/12/14 07:21:08;;;;;;;47.17;28.35;;;;;;;-2.65;87.45;100105.31;1501422;88;21329;-88
2022/12/14 07:23:36;;;;;;;49.85;26.55;;;;;;;-2.61;87.32;100097.80;1565428;88;22009;-83
2022/12/14 07:26:08;;;;;;;59.33;30.12;;;;;;;-2.57;87.17;100087.66;1401668;88;21476;-87
2022/12/14 07:28:37;;;;;;;43.20;23.57;;;;;;;-2.52;86.86;100088.28;1559768;88;21286;-86
2022/12/14 07:31:07;;;;;;;42.83;23.30;;;;;;;-2.48;86.68;100092.40;1399527;88;22092;-88
2022/12/14 07:33:39;;;;;;;47.08;25.40;;;;;;;-2.43;86.12;100096.91;1399781;88;21226;-86
2022/12/14 07:36:14;;;;;;;57.67;33.40;;;;;;;-2.37;85.81;100099.67;1400524;88;21485;-85
2022/12/14 07:42:52;;;;;;;44.13;21.70;;;;;;;-2.31;85.72;100078.17;1565442;88;21176;-88
2022/12/14 07:45:16;;;;;;;36.88;20.70;;;;;;;-2.24;84.38;100075.27;1564412;88;21293;-83
2022/12/14 07:47:42;;;;;;;42.78;25.25;;;;;;;-2.16;84.81;100086.11;1403890;88;22181;-85
2022/12/14 07:50:09;;;;;;;31.48;20.40;;;;;;;-2.13;83.72;100090.72;1409676;87;21344;-84
2022/12/14 07:52:36;;;;;;;34.25;19.80;;;;;;;-2.09;83.61;100095.29;1403075;87;21227;-91
2022/12/14 07:55:02;;;;;;;33.10;17.55;;;;;;;-2.00;84.03;100110.39;1403714;87;21293;-88
2022/12/14 07:57:33;;;;;;;32.50;18.80;;;;;;;-2.01;81.76;100111.75;1404109;88;22144;-84
2022/12/14 07:59:59;;;;;;;31.62;19.05;;;;;;;-1.98;81.66;100115.05;1409586;87;21234;-85
2022/12/14 08:02:25;;;;;;;35.37;20.00;;;;;;;-1.93;81.51;100107.86;1406435;88;21352;-86
2022/12/14 08:04:52;;;;;;;30.27;17.50;;;;;;;-1.90;82.17;100104.27;1404991;87;22213;-86
2022/12/14 08:07:18;;;;;;;33.45;19.82;;;;;;;-1.87;80.82;100107.58;1436351;88;21480;-85
2022/12/14 08:09:44;;;;;;;39.35;19.95;;;;;;;-1.80;81.86;100112.46;1482608;88;21511;-85
2022/12/14 08:12:10;;;;;;;31.47;17.37;;;;;;;-1.77;81.35;100109.71;1479905;88;21381;-89
2022/12/14 08:14:36;;;;;;;31.47;18.43;;;;;;;-1.75;80.10;100102.70;1475855;88;22434;-86
2022/12/14 08:17:02;;;;;;;26.63;17.10;;;;;;;-1.72;79.61;100094.76;1473798;87;21617;-88
2022/12/14 08:19:28;;;;;;;26.47;16.10;;;;;;;-1.68;79.95;100093.67;1480472;87;21699;-85
2022/12/14 08:21:54;;;;;;;32.40;18.45;;;;;;;-1.66;79.03;100088.78;1476774;88;21374;-89
2022/12/14 08:24:20;;;;;;;33.70;20.80;;;;;;;-1.70;78.96;100080.76;1483616;88;21426;-88
2022/12/14 08:26:46;;;;;;;32.97;16.90;;;;;;;-1.70;79.21;100082.52;1482678;88;21743;-85
2022/12/14 08:29:13;;;;;;;24.33;14.33;;;;;;;-1.73;78.00;100081.37;1481184;87;21548;-85
2022/12/14 08:31:40;;;;;;;24.85;14.73;;;;;;;-1.75;77.60;100076.75;1477356;88;23110;-84
2022/12/14 08:34:09;;;;;;;24.87;13.20;;;;;;;-1.74;77.90;100073.23;1477079;87;21595;-88
2022/12/14 08:36:35;;;;;;;28.73;15.43;;;;;;;-1.78;77.41;100094.61;1462967;88;21589;-88
2022/12/14 08:39:08;;;;;;;25.13;13.40;;;;;;;-1.71;77.76;100093.83;1483645;88;21811;-82
2022/12/14 08:41:34;;;;;;;26.83;14.00;;;;;;;-1.66;77.70;100086.66;1474037;87;21837;-87
2022/12/14 08:44:02;;;;;;;24.97;15.03;;;;;;;-1.67;76.95;100086.25;1458990;88;21631;-83
2022/12/14 08:46:32;;;;;;;22.80;14.75;;;;;;;-1.60;77.29;100086.34;1383620;89;21554;-90
2022/12/14 08:48:58;;;;;;;29.05;16.48;;;;;;;-1.48;77.53;100099.97;1565067;88;21301;-89
2022/12/14 08:51:26;;;;;;;24.40;13.70;;;;;;;-1.40;77.79;100096.53;1385933;89;21212;-88
2022/12/14 08:53:54;;;;;;;23.63;14.03;;;;;;;-1.40;75.52;100091.33;1384070;89;22413;-86
2022/12/14 08:56:24;;;;;;;30.60;15.37;;;;;;;-1.33;76.39;100081.46;1390942;89;21525;-86
2022/12/14 08:58:51;;;;;;;24.95;14.58;;;;;;;-1.31;75.06;100074.44;1565616;87;21566;-86
2022/12/14 09:01:24;;;;;;;38.93;15.23;;;;;;;-1.30;75.37;100070.08;1403068;88;22173;-89
2022/12/14 09:03:51;;;;;;;23.23;15.50;;;;;;;-1.30;74.82;100065.72;1565460;87;21486;-90
2022/12/14 09:06:22;;;;;;;25.17;14.30;;;;;;;-1.27;75.19;100063.42;1409826;88;21450;-89
2022/12/14 09:08:49;;;;;;;27.47;13.20;;;;;;;-1.24;75.82;100062.79;1400133;89;21658;-88
2022/12/14 09:11:17;;;;;;;31.90;14.03;;;;;;;-1.19;75.65;100063.86;1403068;88;21470;-87
2022/12/14 09:13:44;;;;;;;23.53;14.93;;;;;;;-1.19;74.83;100052.17;1539995;88;21607;-85
2022/12/14 09:16:15;;;;;;;23.37;14.07;;;;;;;-1.16;75.48;100048.11;1403623;87;21562;-88
2022/12/14 09:18:41;;;;;;;;;;;;;;;-1.14;74.69;100048.41;1560377;88;21573;-87
2022/12/14 09:21:08;;;;;;;26.00;14.00;;;;;;;-1.09;74.21;100044.28;1403642;88;20238;-86
2022/12/14 09:23:35;;;;;;;24.33;14.67;;;;;;;-1.12;74.23;100044.88;1403184;88;22381;-87
2022/12/14 09:26:09;;;;;;;20.33;11.60;;;;;;;-1.04;75.44;100041.41;1403156;88;21339;-87
2022/12/14 09:28:37;;;;;;;19.37;12.07;;;;;;;-1.10;74.16;100036.09;1558019;88;21446;-85
2022/12/14 09:31:08;;;;;;;23.83;14.30;;;;;;;-1.07;74.74;100033.33;1401306;88;21471;-88
2022/12/14 09:33:35;;;;;;;30.82;15.48;;;;;;;-1.01;75.46;100038.19;1560767;87;21354;-89
2022/12/14 09:36:09;;;;;;;24.50;13.83;;;;;;;-0.96;75.57;100037.48;1479713;88;21360;-92
2022/12/14 09:38:36;;;;;;;21.90;13.10;;;;;;;-0.89;75.45;100023.71;1479158;88;22487;-91
2022/12/14 09:41:24;;;;;;;21.20;13.10;;;;;;;-0.82;75.60;100007.31;1478531;88;22477;-92
2022/12/14 09:44:01;;;;;;;20.30;12.50;;;;;;;-0.81;74.45;99997.28;1476793;88;21602;-92
2022/12/14 09:46:51;;;;;;;20.13;12.03;;;;;;;-0.75;75.62;100015.98;1482700;88;21812;-91
2022/12/14 09:49:47;;;;;;;22.50;13.77;;;;;;;-0.71;73.92;100011.45;1479527;88;21601;-91
2022/12/14 09:52:25;;;;;;;23.03;12.93;;;;;;;-0.69;74.21;100007.84;1478708;88;22808;-89
2022/12/14 09:54:54;;;;;;;19.97;13.07;;;;;;;-0.66;73.79;99999.04;1481998;88;22388;-91
2022/12/14 09:57:37;;;;;;;24.60;13.77;;;;;;;-0.65;74.29;100002.00;1454626;88;21774;-91
2022/12/14 10:00:17;;;;;;;16.53;11.10;;;;;;;-0.61;73.60;99996.99;1479075;88;22137;-82
2022/12/14 10:03:13;;;;;;;20.67;12.23;;;;;;;-0.61;73.85;99998.77;1486359;87;21689;-92
2022/12/14 10:06:18;;;;;;;20.37;11.77;;;;;;;-0.62;72.91;99995.33;1479296;88;21786;-88
2022/12/14 10:09:07;;;;;;;18.00;11.37;;;;;;;-0.56;73.94;99987.18;1485062;87;22812;-91
2022/12/14 10:12:01;;;;;;;19.53;12.83;;;;;;;-0.57;72.87;99994.61;1476397;87;21678;-90
2022/12/14 10:14:45;;;;;;;19.90;11.87;;;;;;;-0.49;74.16;99993.72;1478835;88;22452;-91
2022/12/14 10:17:46;;;;;;;23.57;14.27;;;;;;;-0.47;72.43;99989.24;1485745;87;21649;-90
2022/12/14 10:20:25;;;;;;;26.33;14.90;;;;;;;-0.46;72.39;100000.51;1484071;88;21530;-90
2022/12/14 10:22:52;;;;;;;32.53;17.47;;;;;;;-0.41;73.43;99990.66;1480187;88;22594;-92
2022/12/14 10:25:29;;;;;;;25.00;14.57;;;;;;;-0.39;72.49;99986.69;1476098;88;22091;-88
2022/12/14 10:28:18;;;;;;;30.43;16.77;;;;;;;-0.41;72.39;99975.05;1478879;88;22690;-90
2022/12/14 10:30:47;;;;;;;21.80;11.83;;;;;;;-0.42;72.02;99973.86;1480969;88;21704;-90
2022/12/14 10:33:29;;;;;;;23.47;13.97;;;;;;;-0.48;71.07;99971.98;1482123;88;21758;-90
2022/12/14 10:36:09;;;;;;;25.13;13.10;;;;;;;-0.47;71.53;99965.02;1481182;88;21716;-91
2022/12/14 10:39:00;;;;;;;20.93;12.00;;;;;;;-0.45;72.26;99969.67;1477262;88;21680;-90
2022/12/14 10:41:44;;;;;;;23.98;15.08;;;;;;;-0.43;71.97;99973.47;1482712;88;21820;-90
2022/12/14 10:44:28;;;;;;;21.80;13.47;;;;;;;-0.40;71.38;99968.09;1483265;88;21434;-90
2022/12/14 10:47:22;;;;;;;24.97;14.07;;;;;;;-0.38;71.60;99966.24;1485538;88;21798;-90
2022/12/14 10:49:57;;;;;;;27.13;15.70;;;;;;;-0.32;71.96;99967.19;1478984;88;21698;-91
2022/12/14 10:52:28;;;;;;;25.17;14.77;;;;;;;-0.25;72.61;99962.02;1476211;88;21915;-91
2022/12/14 10:55:03;;;;;;;25.12;14.98;;;;;;;-0.26;71.00;99955.12;1483350;88;21581;-88
2022/12/14 10:57:30;;;;;;;37.77;19.30;;;;;;;-0.23;71.46;99952.37;1474682;88;21448;-90
2022/12/14 10:59:56;;;;;;;33.40;17.33;;;;;;;-0.18;71.26;99953.38;1479975;88;21576;-91
2022/12/14 11:02:26;;;;;;;23.63;13.97;;;;;;;-0.15;71.50;99948.82;1477236;87;22823;-91
2022/12/14 11:04:57;;;;;;;21.90;13.87;;;;;;;-0.11;70.69;99936.02;1462254;88;21552;-91
2022/12/14 11:07:27;;;;;;;27.20;14.98;;;;;;;-0.17;69.52;99925.98;1483069;88;21786;-90
2022/12/14 11:09:58;;;;;;;21.80;14.13;;;;;;;-0.09;71.03;99930.24;1458713;88;22482;-91
2022/12/14 11:12:26;;;;;;;24.65;14.70;;;;;;;-0.06;70.02;99930.09;1454843;88;21440;-92
2022/12/14 11:15:02;;;;;;;21.37;14.00;;;;;;;-0.03;70.06;99923.39;1480724;88;21316;-87
2022/12/14 11:17:39;;;;;;;27.50;14.73;;;;;;;0.02;70.09;99915.30;1486834;87;21790;-87
2022/12/14 11:20:23;;;;;;;26.63;14.93;;;;;;;0.09;71.42;99913.17;1460245;88;21532;-90
2022/12/14 11:22:58;;;;;;;19.57;11.73;;;;;;;0.13;71.25;99906.84;1466594;88;21715;-90
2022/12/14 11:25:42;;;;;;;24.93;14.70;;;;;;;0.14;70.77;99900.23;1483989;87;21560;-89
2022/12/14 11:28:26;;;;;;;25.30;13.70;;;;;;;0.18;70.83;99893.09;1483479;88;21711;-90
2022/12/14 11:31:06;;;;;;;20.53;13.40;;;;;;;0.24;71.35;99891.88;1481432;88;23282;-91
2022/12/14 11:33:41;;;;;;;22.13;13.73;;;;;;;0.22;71.22;99888.05;1484607;87;21686;-91
2022/12/14 11:36:08;;;;;;;20.23;12.63;;;;;;;0.19;69.87;99886.47;1481170;88;21404;-91
2022/12/14 11:38:34;;;;;;;26.00;12.80;;;;;;;0.17;70.90;99884.89;1475444;88;21865;-90
2022/12/14 11:41:03;;;;;;;22.83;13.93;;;;;;;0.14;70.88;99893.72;1483776;88;21802;-90
2022/12/14 11:43:33;;;;;;;19.87;12.13;;;;;;;0.15;71.36;99891.98;1474932;88;21789;-91
2022/12/14 11:46:01;;;;;;;18.77;11.57;;;;;;;0.17;71.06;99886.19;1480802;88;22442;-91
2022/12/14 11:48:28;;;;;;;18.40;10.40;;;;;;;0.14;70.60;99892.89;1458104;88;21531;-87
2022/12/14 11:51:11;;;;;;;28.80;17.17;;;;;;;0.14;70.66;99885.08;1484464;87;21825;-92
2022/12/14 11:53:38;;;;;;;20.97;13.27;;;;;;;0.15;70.36;99883.70;1480934;88;22430;-91
2022/12/14 11:56:09;;;;;;;20.27;12.47;;;;;;;0.15;70.22;99881.10;1488648;87;21667;-90
2022/12/14 11:58:40;;;;;;;20.90;12.73;;;;;;;0.16;70.26;99875.42;1485522;88;22569;-91